sensor_id;sensor_type;location;lat;lon;timestamp;P1;durP1;ratioP1;P2;durP2;ratioP2
57107;SDS011;42987;52.916;6.542;2023-05-10T00:01:12;25.73;;;22.08;;
57107;SDS011;42987;52.916;6.542;2023-05-10T00:03:38;17.73;;;16.02;;
57107;SDS011;42987;52.916;6.542;2023-05-10T00:06:05;36.72;;;23.30;;
57107;SDS011;42987;52.916;6.542;2023-05-10T00:08:31;39.03;;;22.25;;
57107;SDS011;42987;52.916;6.542;2023-05-10T00:10:56;21.30;;;17.55;;
57107;SDS011;42987;52.916;6.542;2023-05-10T00:13:22;15.73;;;14.30;;
57107;SDS011;42987;52.916;6.542;2023-05-10T00:15:48;18.38;;;16.50;;
57107;SDS011;42987;52.916;6.542;2023-05-10T00:18:14;17.40;;;15.65;;
57107;SDS011;42987;52.916;6.542;2023-05-10T00:20:40;17.25;;;15.57;;
57107;SDS011;42987;52.916;6.542;2023-05-10T00:23:06;17.05;;;15.43;;
57107;SDS011;42987;52.916;6.542;2023-05-10T00:25:32;17.58;;;15.70;;
57107;SDS011;42987;52.916;6.542;2023-05-10T00:28:01;18.15;;;16.35;;
57107;SDS011;42987;52.916;6.542;2023-05-10T00:30:27;16.73;;;15.13;;
57107;SDS011;42987;52.916;6.542;2023-05-10T00:32:53;19.65;;;17.13;;
57107;SDS011;42987;52.916;6.542;2023-05-10T00:35:19;16.67;;;15.07;;
57107;SDS011;42987;52.916;6.542;2023-05-10T00:37:49;24.80;;;19.05;;
57107;SDS011;42987;52.916;6.542;2023-05-10T00:40:15;19.75;;;16.08;;
57107;SDS011;42987;52.916;6.542;2023-05-10T00:42:41;21.92;;;18.00;;
57107;SDS011;42987;52.916;6.542;2023-05-10T00:45:07;17.77;;;16.08;;
57107;SDS011;42987;52.916;6.542;2023-05-10T00:47:34;19.27;;;17.23;;
57107;SDS011;42987;52.916;6.542;2023-05-10T00:50:00;17.98;;;16.17;;
57107;SDS011;42987;52.916;6.542;2023-05-10T00:52:26;16.17;;;14.57;;
57107;SDS011;42987;52.916;6.542;2023-05-10T00:54:53;17.15;;;15.15;;
57107;SDS011;42987;52.916;6.542;2023-05-10T00:57:23;19.17;;;16.38;;
57107;SDS011;42987;52.916;6.542;2023-05-10T00:59:50;17.55;;;15.70;;
57107;SDS011;42987;52.916;6.542;2023-05-10T01:02:16;15.82;;;14.23;;
57107;SDS011;42987;52.916;6.542;2023-05-10T01:04:42;17.50;;;15.70;;
57107;SDS011;42987;52.916;6.542;2023-05-10T01:07:08;38.75;;;19.70;;
57107;SDS011;42987;52.916;6.542;2023-05-10T01:09:34;15.48;;;13.90;;
57107;SDS011;42987;52.916;6.542;2023-05-10T01:12:00;15.93;;;14.43;;
57107;SDS011;42987;52.916;6.542;2023-05-10T01:14:28;17.70;;;15.80;;
57107;SDS011;42987;52.916;6.542;2023-05-10T01:16:54;16.45;;;14.80;;
57107;SDS011;42987;52.916;6.542;2023-05-10T01:19:24;18.20;;;14.80;;
57107;SDS011;42987;52.916;6.542;2023-05-10T01:30:22;14.77;;;13.27;;
57107;SDS011;42987;52.916;6.542;2023-05-10T01:49:09;19.55;;;15.90;;
57107;SDS011;42987;52.916;6.542;2023-05-10T01:51:52;25.88;;;17.35;;
57107;SDS011;42987;52.916;6.542;2023-05-10T01:54:26;36.83;;;19.45;;
57107;SDS011;42987;52.916;6.542;2023-05-10T01:57:01;28.00;;;17.75;;
57107;SDS011;42987;52.916;6.542;2023-05-10T01:59:31;36.58;;;20.58;;
57107;SDS011;42987;52.916;6.542;2023-05-10T02:02:05;32.38;;;17.98;;
57107;SDS011;42987;52.916;6.542;2023-05-10T02:04:37;41.65;;;20.92;;
57107;SDS011;42987;52.916;6.542;2023-05-10T02:07:05;29.40;;;17.75;;
57107;SDS011;42987;52.916;6.542;2023-05-10T02:09:33;39.75;;;20.38;;
57107;SDS011;42987;52.916;6.542;2023-05-10T02:12:01;32.60;;;18.55;;
57107;SDS011;42987;52.916;6.542;2023-05-10T02:14:33;15.93;;;14.33;;
57107;SDS011;42987;52.916;6.542;2023-05-10T02:17:05;17.33;;;15.35;;
57107;SDS011;42987;52.916;6.542;2023-05-10T02:19:32;17.73;;;14.13;;
57107;SDS011;42987;52.916;6.542;2023-05-10T02:22:01;21.73;;;15.70;;
57107;SDS011;42987;52.916;6.542;2023-05-10T02:24:29;32.45;;;18.88;;
57107;SDS011;42987;52.916;6.542;2023-05-10T02:26:58;23.10;;;17.13;;
57107;SDS011;42987;52.916;6.542;2023-05-10T02:29:28;31.17;;;18.80;;
57107;SDS011;42987;52.916;6.542;2023-05-10T02:31:55;15.35;;;13.77;;
57107;SDS011;42987;52.916;6.542;2023-05-10T02:34:22;14.65;;;13.07;;
57107;SDS011;42987;52.916;6.542;2023-05-10T02:36:53;17.17;;;15.18;;
57107;SDS011;42987;52.916;6.542;2023-05-10T02:39:20;15.43;;;13.93;;
57107;SDS011;42987;52.916;6.542;2023-05-10T02:41:50;16.40;;;14.73;;
57107;SDS011;42987;52.916;6.542;2023-05-10T02:44:17;32.17;;;19.80;;
57107;SDS011;42987;52.916;6.542;2023-05-10T02:46:45;17.85;;;16.05;;
57107;SDS011;42987;52.916;6.542;2023-05-10T02:49:11;15.55;;;13.95;;
57107;SDS011;42987;52.916;6.542;2023-05-10T02:51:40;15.65;;;14.13;;
57107;SDS011;42987;52.916;6.542;2023-05-10T02:54:11;14.93;;;13.43;;
57107;SDS011;42987;52.916;6.542;2023-05-10T02:56:42;21.20;;;16.67;;
57107;SDS011;42987;52.916;6.542;2023-05-10T02:59:21;16.08;;;14.27;;
57107;SDS011;42987;52.916;6.542;2023-05-10T03:01:47;15.75;;;14.00;;
57107;SDS011;42987;52.916;6.542;2023-05-10T03:04:13;17.33;;;15.63;;
57107;SDS011;42987;52.916;6.542;2023-05-10T03:06:39;28.48;;;18.10;;
57107;SDS011;42987;52.916;6.542;2023-05-10T03:09:05;18.83;;;16.80;;
57107;SDS011;42987;52.916;6.542;2023-05-10T03:19:58;13.88;;;12.48;;
57107;SDS011;42987;52.916;6.542;2023-05-10T03:22:32;14.43;;;13.10;;
57107;SDS011;42987;52.916;6.542;2023-05-10T03:25:04;14.57;;;13.18;;
57107;SDS011;42987;52.916;6.542;2023-05-10T03:27:33;15.63;;;14.00;;
57107;SDS011;42987;52.916;6.542;2023-05-10T03:30:02;14.73;;;13.32;;
57107;SDS011;42987;52.916;6.542;2023-05-10T03:32:28;13.70;;;12.05;;
57107;SDS011;42987;52.916;6.542;2023-05-10T03:34:56;19.42;;;14.35;;
57107;SDS011;42987;52.916;6.542;2023-05-10T03:37:22;20.83;;;14.13;;
57107;SDS011;42987;52.916;6.542;2023-05-10T03:39:48;15.07;;;13.02;;
57107;SDS011;42987;52.916;6.542;2023-05-10T03:42:14;13.93;;;12.20;;
57107;SDS011;42987;52.916;6.542;2023-05-10T03:44:40;21.05;;;15.25;;
57107;SDS011;42987;52.916;6.542;2023-05-10T03:47:06;19.08;;;13.35;;
57107;SDS011;42987;52.916;6.542;2023-05-10T03:49:31;20.13;;;14.05;;
57107;SDS011;42987;52.916;6.542;2023-05-10T03:51:57;12.32;;;10.63;;
57107;SDS011;42987;52.916;6.542;2023-05-10T03:54:23;13.43;;;11.27;;
57107;SDS011;42987;52.916;6.542;2023-05-10T03:56:49;10.40;;;9.40;;
57107;SDS011;42987;52.916;6.542;2023-05-10T03:59:15;12.25;;;10.70;;
57107;SDS011;42987;52.916;6.542;2023-05-10T04:01:41;11.32;;;10.18;;
57107;SDS011;42987;52.916;6.542;2023-05-10T04:04:07;12.52;;;11.20;;
57107;SDS011;42987;52.916;6.542;2023-05-10T04:06:33;13.27;;;11.30;;
57107;SDS011;42987;52.916;6.542;2023-05-10T04:08:58;11.73;;;10.55;;
57107;SDS011;42987;52.916;6.542;2023-05-10T04:11:26;12.20;;;10.85;;
57107;SDS011;42987;52.916;6.542;2023-05-10T04:13:53;21.77;;;15.48;;
57107;SDS011;42987;52.916;6.542;2023-05-10T04:16:18;17.80;;;13.38;;
57107;SDS011;42987;52.916;6.542;2023-05-10T04:18:44;13.63;;;12.27;;
57107;SDS011;42987;52.916;6.542;2023-05-10T04:21:13;19.85;;;16.05;;
57107;SDS011;42987;52.916;6.542;2023-05-10T04:23:39;15.52;;;14.02;;
57107;SDS011;42987;52.916;6.542;2023-05-10T04:26:09;15.93;;;14.38;;
57107;SDS011;42987;52.916;6.542;2023-05-10T04:28:35;24.63;;;17.65;;
57107;SDS011;42987;52.916;6.542;2023-05-10T04:31:08;15.63;;;14.02;;
57107;SDS011;42987;52.916;6.542;2023-05-10T04:33:35;14.80;;;13.40;;
57107;SDS011;42987;52.916;6.542;2023-05-10T04:36:02;14.57;;;13.18;;
57107;SDS011;42987;52.916;6.542;2023-05-10T04:38:29;18.55;;;14.75;;
57107;SDS011;42987;52.916;6.542;2023-05-10T04:41:03;17.83;;;15.00;;
57107;SDS011;42987;52.916;6.542;2023-05-10T04:43:30;12.43;;;11.32;;
57107;SDS011;42987;52.916;6.542;2023-05-10T04:45:56;13.50;;;12.13;;
57107;SDS011;42987;52.916;6.542;2023-05-10T04:48:22;24.73;;;16.73;;
57107;SDS011;42987;52.916;6.542;2023-05-10T04:50:48;14.90;;;13.07;;
57107;SDS011;42987;52.916;6.542;2023-05-10T04:53:14;13.95;;;12.13;;
57107;SDS011;42987;52.916;6.542;2023-05-10T04:55:39;17.58;;;14.10;;
57107;SDS011;42987;52.916;6.542;2023-05-10T04:58:05;17.70;;;14.48;;
57107;SDS011;42987;52.916;6.542;2023-05-10T05:00:32;13.27;;;12.05;;
57107;SDS011;42987;52.916;6.542;2023-05-10T05:03:01;15.32;;;13.02;;
57107;SDS011;42987;52.916;6.542;2023-05-10T05:05:26;14.15;;;12.77;;
57107;SDS011;42987;52.916;6.542;2023-05-10T05:07:52;17.05;;;14.18;;
57107;SDS011;42987;52.916;6.542;2023-05-10T05:10:18;15.00;;;11.98;;
57107;SDS011;42987;52.916;6.542;2023-05-10T05:12:44;18.85;;;14.55;;
57107;SDS011;42987;52.916;6.542;2023-05-10T05:15:10;19.27;;;15.07;;
57107;SDS011;42987;52.916;6.542;2023-05-10T05:17:36;15.18;;;13.63;;
57107;SDS011;42987;52.916;6.542;2023-05-10T05:20:02;12.65;;;11.35;;
57107;SDS011;42987;52.916;6.542;2023-05-10T05:22:31;16.23;;;13.57;;
57107;SDS011;42987;52.916;6.542;2023-05-10T05:24:57;13.30;;;11.98;;
57107;SDS011;42987;52.916;6.542;2023-05-10T05:27:27;19.52;;;14.35;;
57107;SDS011;42987;52.916;6.542;2023-05-10T05:29:54;12.23;;;11.00;;
57107;SDS011;42987;52.916;6.542;2023-05-10T05:32:20;16.75;;;13.65;;
57107;SDS011;42987;52.916;6.542;2023-05-10T05:34:47;17.25;;;13.95;;
57107;SDS011;42987;52.916;6.542;2023-05-10T05:37:16;19.92;;;14.60;;
57107;SDS011;42987;52.916;6.542;2023-05-10T05:39:46;15.77;;;13.98;;
57107;SDS011;42987;52.916;6.542;2023-05-10T05:42:12;14.57;;;12.30;;
57107;SDS011;42987;52.916;6.542;2023-05-10T05:44:39;13.65;;;12.25;;
57107;SDS011;42987;52.916;6.542;2023-05-10T05:47:06;13.70;;;11.73;;
57107;SDS011;42987;52.916;6.542;2023-05-10T05:49:31;11.23;;;10.10;;
57107;SDS011;42987;52.916;6.542;2023-05-10T05:52:01;11.88;;;10.75;;
57107;SDS011;42987;52.916;6.542;2023-05-10T05:54:28;11.75;;;10.55;;
57107;SDS011;42987;52.916;6.542;2023-05-10T05:56:58;16.08;;;11.75;;
57107;SDS011;42987;52.916;6.542;2023-05-10T05:59:26;12.00;;;10.65;;
57107;SDS011;42987;52.916;6.542;2023-05-10T06:01:52;18.83;;;13.38;;
57107;SDS011;42987;52.916;6.542;2023-05-10T06:04:19;19.42;;;14.07;;
57107;SDS011;42987;52.916;6.542;2023-05-10T06:06:45;13.63;;;11.43;;
57107;SDS011;42987;52.916;6.542;2023-05-10T06:09:11;15.23;;;11.52;;
57107;SDS011;42987;52.916;6.542;2023-05-10T06:11:37;17.95;;;13.18;;
57107;SDS011;42987;52.916;6.542;2023-05-10T06:14:03;12.38;;;11.15;;
57107;SDS011;42987;52.916;6.542;2023-05-10T06:16:30;15.15;;;12.05;;
57107;SDS011;42987;52.916;6.542;2023-05-10T06:18:56;16.02;;;13.18;;
57107;SDS011;42987;52.916;6.542;2023-05-10T06:21:22;14.18;;;11.48;;
57107;SDS011;42987;52.916;6.542;2023-05-10T06:23:47;11.25;;;9.52;;
57107;SDS011;42987;52.916;6.542;2023-05-10T06:26:13;11.10;;;8.70;;
57107;SDS011;42987;52.916;6.542;2023-05-10T06:28:39;7.47;;;6.63;;
57107;SDS011;42987;52.916;6.542;2023-05-10T06:31:08;8.52;;;7.18;;
57107;SDS011;42987;52.916;6.542;2023-05-10T06:33:36;8.40;;;6.50;;
57107;SDS011;42987;52.916;6.542;2023-05-10T06:36:02;8.43;;;6.80;;
57107;SDS011;42987;52.916;6.542;2023-05-10T06:38:28;8.88;;;6.57;;
57107;SDS011;42987;52.916;6.542;2023-05-10T06:40:54;8.88;;;6.53;;
57107;SDS011;42987;52.916;6.542;2023-05-10T06:43:23;6.45;;;5.15;;
57107;SDS011;42987;52.916;6.542;2023-05-10T06:45:49;8.43;;;7.03;;
57107;SDS011;42987;52.916;6.542;2023-05-10T06:48:18;9.63;;;6.60;;
57107;SDS011;42987;52.916;6.542;2023-05-10T06:50:44;7.45;;;5.75;;
57107;SDS011;42987;52.916;6.542;2023-05-10T06:53:09;9.13;;;6.80;;
57107;SDS011;42987;52.916;6.542;2023-05-10T06:55:37;9.18;;;7.20;;
57107;SDS011;42987;52.916;6.542;2023-05-10T06:58:02;7.97;;;6.90;;
57107;SDS011;42987;52.916;6.542;2023-05-10T07:00:28;8.55;;;6.35;;
57107;SDS011;42987;52.916;6.542;2023-05-10T07:02:54;10.60;;;7.68;;
57107;SDS011;42987;52.916;6.542;2023-05-10T07:05:20;9.43;;;7.15;;
57107;SDS011;42987;52.916;6.542;2023-05-10T07:07:46;8.77;;;6.15;;
57107;SDS011;42987;52.916;6.542;2023-05-10T07:10:12;11.70;;;7.72;;
57107;SDS011;42987;52.916;6.542;2023-05-10T07:12:39;12.35;;;8.43;;
57107;SDS011;42987;52.916;6.542;2023-05-10T07:15:05;8.35;;;7.25;;
57107;SDS011;42987;52.916;6.542;2023-05-10T07:17:31;10.00;;;8.48;;
57107;SDS011;42987;52.916;6.542;2023-05-10T07:19:58;9.98;;;7.75;;
57107;SDS011;42987;52.916;6.542;2023-05-10T07:22:25;10.05;;;7.97;;
57107;SDS011;42987;52.916;6.542;2023-05-10T07:24:51;10.30;;;7.43;;
57107;SDS011;42987;52.916;6.542;2023-05-10T07:27:17;6.95;;;6.05;;
57107;SDS011;42987;52.916;6.542;2023-05-10T07:29:42;10.25;;;7.28;;
57107;SDS011;42987;52.916;6.542;2023-05-10T07:32:08;9.88;;;7.82;;
57107;SDS011;42987;52.916;6.542;2023-05-10T07:34:34;12.90;;;8.05;;
57107;SDS011;42987;52.916;6.542;2023-05-10T07:37:00;9.15;;;7.45;;
57107;SDS011;42987;52.916;6.542;2023-05-10T07:39:27;8.55;;;6.90;;
57107;SDS011;42987;52.916;6.542;2023-05-10T07:41:53;9.13;;;6.78;;
57107;SDS011;42987;52.916;6.542;2023-05-10T07:44:20;15.85;;;9.75;;
57107;SDS011;42987;52.916;6.542;2023-05-10T07:46:46;9.07;;;7.07;;
57107;SDS011;42987;52.916;6.542;2023-05-10T07:49:13;9.55;;;7.15;;
57107;SDS011;42987;52.916;6.542;2023-05-10T07:51:39;7.60;;;5.88;;
57107;SDS011;42987;52.916;6.542;2023-05-10T07:54:05;7.43;;;6.18;;
57107;SDS011;42987;52.916;6.542;2023-05-10T07:56:31;8.65;;;6.25;;
57107;SDS011;42987;52.916;6.542;2023-05-10T07:58:58;8.02;;;6.18;;
57107;SDS011;42987;52.916;6.542;2023-05-10T08:01:24;8.45;;;6.40;;
57107;SDS011;42987;52.916;6.542;2023-05-10T08:03:51;7.80;;;5.28;;
57107;SDS011;42987;52.916;6.542;2023-05-10T08:06:18;7.88;;;6.13;;
57107;SDS011;42987;52.916;6.542;2023-05-10T08:08:47;10.35;;;7.18;;
57107;SDS011;42987;52.916;6.542;2023-05-10T08:11:19;10.32;;;6.63;;
57107;SDS011;42987;52.916;6.542;2023-05-10T08:13:48;10.68;;;7.40;;
57107;SDS011;42987;52.916;6.542;2023-05-10T08:16:18;8.38;;;6.75;;
57107;SDS011;42987;52.916;6.542;2023-05-10T08:18:44;8.18;;;6.85;;
57107;SDS011;42987;52.916;6.542;2023-05-10T08:21:12;7.65;;;6.00;;
57107;SDS011;42987;52.916;6.542;2023-05-10T08:23:38;7.55;;;6.25;;
57107;SDS011;42987;52.916;6.542;2023-05-10T08:26:04;6.82;;;5.03;;
57107;SDS011;42987;52.916;6.542;2023-05-10T08:28:30;7.03;;;5.53;;
57107;SDS011;42987;52.916;6.542;2023-05-10T08:30:56;8.55;;;5.63;;
57107;SDS011;42987;52.916;6.542;2023-05-10T08:33:24;9.20;;;6.70;;
57107;SDS011;42987;52.916;6.542;2023-05-10T08:35:50;9.85;;;6.55;;
57107;SDS011;42987;52.916;6.542;2023-05-10T08:38:17;8.93;;;7.13;;
57107;SDS011;42987;52.916;6.542;2023-05-10T08:40:44;8.43;;;6.85;;
57107;SDS011;42987;52.916;6.542;2023-05-10T08:43:10;8.20;;;7.22;;
57107;SDS011;42987;52.916;6.542;2023-05-10T08:45:38;10.25;;;5.97;;
57107;SDS011;42987;52.916;6.542;2023-05-10T08:48:05;8.13;;;6.80;;
57107;SDS011;42987;52.916;6.542;2023-05-10T08:50:36;8.30;;;6.68;;
57107;SDS011;42987;52.916;6.542;2023-05-10T08:53:08;7.20;;;5.40;;
57107;SDS011;42987;52.916;6.542;2023-05-10T08:55:35;7.45;;;6.55;;
57107;SDS011;42987;52.916;6.542;2023-05-10T08:58:03;9.15;;;6.07;;
57107;SDS011;42987;52.916;6.542;2023-05-10T09:00:33;10.10;;;6.15;;
57107;SDS011;42987;52.916;6.542;2023-05-10T09:03:03;10.93;;;6.65;;
57107;SDS011;42987;52.916;6.542;2023-05-10T09:05:30;7.57;;;6.50;;
57107;SDS011;42987;52.916;6.542;2023-05-10T09:07:56;8.85;;;5.78;;
57107;SDS011;42987;52.916;6.542;2023-05-10T09:10:21;7.53;;;6.18;;
57107;SDS011;42987;52.916;6.542;2023-05-10T09:12:51;8.67;;;6.77;;
57107;SDS011;42987;52.916;6.542;2023-05-10T09:15:18;8.00;;;6.10;;
57107;SDS011;42987;52.916;6.542;2023-05-10T09:17:45;8.35;;;6.45;;
57107;SDS011;42987;52.916;6.542;2023-05-10T09:20:12;5.68;;;5.10;;
57107;SDS011;42987;52.916;6.542;2023-05-10T09:22:38;7.32;;;5.63;;
57107;SDS011;42987;52.916;6.542;2023-05-10T09:27:44;7.45;;;6.60;;
57107;SDS011;42987;52.916;6.542;2023-05-10T09:30:18;9.23;;;6.50;;
57107;SDS011;42987;52.916;6.542;2023-05-10T09:32:52;7.43;;;5.93;;
57107;SDS011;42987;52.916;6.542;2023-05-10T09:35:20;9.32;;;8.32;;
57107;SDS011;42987;52.916;6.542;2023-05-10T09:37:49;8.68;;;7.75;;
57107;SDS011;42987;52.916;6.542;2023-05-10T09:40:19;8.43;;;7.40;;
57107;SDS011;42987;52.916;6.542;2023-05-10T09:42:57;8.88;;;6.78;;
57107;SDS011;42987;52.916;6.542;2023-05-10T09:45:28;6.75;;;5.63;;
57107;SDS011;42987;52.916;6.542;2023-05-10T09:47:55;5.95;;;4.30;;
57107;SDS011;42987;52.916;6.542;2023-05-10T09:50:22;5.85;;;5.03;;
57107;SDS011;42987;52.916;6.542;2023-05-10T09:52:49;6.78;;;4.88;;
57107;SDS011;42987;52.916;6.542;2023-05-10T09:55:26;6.15;;;5.55;;
57107;SDS011;42987;52.916;6.542;2023-05-10T09:58:07;7.78;;;7.00;;
57107;SDS011;42987;52.916;6.542;2023-05-10T10:00:42;8.75;;;6.13;;
57107;SDS011;42987;52.916;6.542;2023-05-10T10:03:16;8.50;;;6.60;;
57107;SDS011;42987;52.916;6.542;2023-05-10T10:05:43;6.50;;;5.50;;
57107;SDS011;42987;52.916;6.542;2023-05-10T10:08:09;6.90;;;6.25;;
57107;SDS011;42987;52.916;6.542;2023-05-10T10:10:37;5.03;;;4.53;;
57107;SDS011;42987;52.916;6.542;2023-05-10T10:13:05;6.72;;;6.03;;
57107;SDS011;42987;52.916;6.542;2023-05-10T10:15:32;6.97;;;6.28;;
57107;SDS011;42987;52.916;6.542;2023-05-10T10:18:02;6.55;;;5.45;;
57107;SDS011;42987;52.916;6.542;2023-05-10T10:20:30;9.25;;;7.13;;
57107;SDS011;42987;52.916;6.542;2023-05-10T10:22:56;7.00;;;5.63;;
57107;SDS011;42987;52.916;6.542;2023-05-10T10:25:22;7.25;;;6.05;;
57107;SDS011;42987;52.916;6.542;2023-05-10T10:30:21;7.35;;;6.60;;
57107;SDS011;42987;52.916;6.542;2023-05-10T10:36:13;7.43;;;6.73;;
57107;SDS011;42987;52.916;6.542;2023-05-10T10:41:28;6.82;;;6.22;;
57107;SDS011;42987;52.916;6.542;2023-05-10T10:47:37;8.40;;;6.50;;
57107;SDS011;42987;52.916;6.542;2023-05-10T10:49:48;5.63;;;4.82;;
57107;SDS011;42987;52.916;6.542;2023-05-10T10:55:12;6.57;;;5.82;;
57107;SDS011;42987;52.916;6.542;2023-05-10T10:57:57;6.75;;;5.90;;
57107;SDS011;42987;52.916;6.542;2023-05-10T11:00:29;7.45;;;6.07;;
57107;SDS011;42987;52.916;6.542;2023-05-10T11:03:04;6.30;;;5.60;;
57107;SDS011;42987;52.916;6.542;2023-05-10T11:05:43;6.93;;;6.15;;
57107;SDS011;42987;52.916;6.542;2023-05-10T11:08:30;7.28;;;5.72;;
57107;SDS011;42987;52.916;6.542;2023-05-10T11:13:27;7.30;;;5.80;;
57107;SDS011;42987;52.916;6.542;2023-05-10T11:18:26;6.75;;;6.15;;
57107;SDS011;42987;52.916;6.542;2023-05-10T11:21:02;8.07;;;7.28;;
57107;SDS011;42987;52.916;6.542;2023-05-10T11:26:08;7.00;;;6.03;;
57107;SDS011;42987;52.916;6.542;2023-05-10T11:28:34;5.90;;;5.30;;
57107;SDS011;42987;52.916;6.542;2023-05-10T11:31:06;6.93;;;5.88;;
57107;SDS011;42987;52.916;6.542;2023-05-10T11:33:42;8.43;;;7.05;;
57107;SDS011;42987;52.916;6.542;2023-05-10T11:36:12;9.30;;;6.28;;
57107;SDS011;42987;52.916;6.542;2023-05-10T11:38:39;8.38;;;6.68;;
57107;SDS011;42987;52.916;6.542;2023-05-10T11:41:05;6.55;;;5.30;;
57107;SDS011;42987;52.916;6.542;2023-05-10T11:43:40;7.13;;;6.43;;
57107;SDS011;42987;52.916;6.542;2023-05-10T11:46:07;8.70;;;6.43;;
57107;SDS011;42987;52.916;6.542;2023-05-10T11:48:36;8.73;;;7.72;;
57107;SDS011;42987;52.916;6.542;2023-05-10T11:51:03;8.05;;;6.53;;
57107;SDS011;42987;52.916;6.542;2023-05-10T11:53:30;7.90;;;5.28;;
57107;SDS011;42987;52.916;6.542;2023-05-10T11:56:10;6.95;;;6.18;;
57107;SDS011;42987;52.916;6.542;2023-05-10T11:58:37;7.43;;;6.47;;
57107;SDS011;42987;52.916;6.542;2023-05-10T12:01:04;7.22;;;6.05;;
57107;SDS011;42987;52.916;6.542;2023-05-10T12:03:31;7.55;;;6.85;;
57107;SDS011;42987;52.916;6.542;2023-05-10T12:05:58;6.90;;;6.20;;
57107;SDS011;42987;52.916;6.542;2023-05-10T12:08:26;7.50;;;6.32;;
57107;SDS011;42987;52.916;6.542;2023-05-10T12:10:53;7.63;;;6.55;;
57107;SDS011;42987;52.916;6.542;2023-05-10T12:13:29;7.20;;;6.50;;
57107;SDS011;42987;52.916;6.542;2023-05-10T12:15:58;8.00;;;7.20;;
57107;SDS011;42987;52.916;6.542;2023-05-10T12:18:24;8.95;;;8.05;;
57107;SDS011;42987;52.916;6.542;2023-05-10T12:20:53;11.15;;;10.02;;
57107;SDS011;42987;52.916;6.542;2023-05-10T12:23:20;12.70;;;10.95;;
57107;SDS011;42987;52.916;6.542;2023-05-10T12:25:46;10.63;;;9.45;;
57107;SDS011;42987;52.916;6.542;2023-05-10T12:28:12;8.57;;;7.55;;
57107;SDS011;42987;52.916;6.542;2023-05-10T12:30:38;8.80;;;7.35;;
57107;SDS011;42987;52.916;6.542;2023-05-10T12:33:08;7.57;;;6.68;;
57107;SDS011;42987;52.916;6.542;2023-05-10T12:35:45;7.50;;;6.70;;
57107;SDS011;42987;52.916;6.542;2023-05-10T12:41:09;9.05;;;7.38;;
57107;SDS011;42987;52.916;6.542;2023-05-10T12:43:36;8.40;;;7.47;;
57107;SDS011;42987;52.916;6.542;2023-05-10T12:48:40;9.07;;;8.02;;
57107;SDS011;42987;52.916;6.542;2023-05-10T12:51:07;10.95;;;8.82;;
57107;SDS011;42987;52.916;6.542;2023-05-10T12:53:51;10.85;;;8.98;;
57107;SDS011;42987;52.916;6.542;2023-05-10T12:56:16;11.57;;;8.93;;
57107;SDS011;42987;52.916;6.542;2023-05-10T12:58:42;13.73;;;10.05;;
57107;SDS011;42987;52.916;6.542;2023-05-10T13:01:13;12.77;;;10.65;;
57107;SDS011;42987;52.916;6.542;2023-05-10T13:03:39;12.23;;;10.93;;
57107;SDS011;42987;52.916;6.542;2023-05-10T13:06:05;14.70;;;11.80;;
57107;SDS011;42987;52.916;6.542;2023-05-10T13:08:31;12.40;;;11.02;;
57107;SDS011;42987;52.916;6.542;2023-05-10T13:10:58;12.40;;;10.13;;
57107;SDS011;42987;52.916;6.542;2023-05-10T13:13:25;11.73;;;10.10;;
57107;SDS011;42987;52.916;6.542;2023-05-10T13:15:51;11.43;;;9.43;;
57107;SDS011;42987;52.916;6.542;2023-05-10T13:18:17;10.80;;;9.70;;
57107;SDS011;42987;52.916;6.542;2023-05-10T13:20:43;12.10;;;9.32;;
57107;SDS011;42987;52.916;6.542;2023-05-10T13:23:09;14.82;;;10.70;;
57107;SDS011;42987;52.916;6.542;2023-05-10T13:25:35;12.65;;;11.35;;
57107;SDS011;42987;52.916;6.542;2023-05-10T13:28:01;11.68;;;10.40;;
57107;SDS011;42987;52.916;6.542;2023-05-10T13:30:27;12.40;;;11.20;;
57107;SDS011;42987;52.916;6.542;2023-05-10T13:32:54;15.85;;;12.68;;
57107;SDS011;42987;52.916;6.542;2023-05-10T13:35:20;13.75;;;12.05;;
57107;SDS011;42987;52.916;6.542;2023-05-10T13:37:48;14.35;;;12.10;;
57107;SDS011;42987;52.916;6.542;2023-05-10T13:40:14;15.77;;;12.52;;
57107;SDS011;42987;52.916;6.542;2023-05-10T13:42:40;15.38;;;12.82;;
57107;SDS011;42987;52.916;6.542;2023-05-10T13:45:07;14.38;;;12.88;;
57107;SDS011;42987;52.916;6.542;2023-05-10T13:47:33;13.70;;;12.18;;
57107;SDS011;42987;52.916;6.542;2023-05-10T13:49:59;14.90;;;12.57;;
57107;SDS011;42987;52.916;6.542;2023-05-10T13:52:26;14.23;;;11.95;;
57107;SDS011;42987;52.916;6.542;2023-05-10T13:54:52;14.93;;;12.27;;
57107;SDS011;42987;52.916;6.542;2023-05-10T13:57:20;16.50;;;13.23;;
57107;SDS011;42987;52.916;6.542;2023-05-10T13:59:49;15.57;;;12.43;;
57107;SDS011;42987;52.916;6.542;2023-05-10T14:02:18;13.63;;;12.13;;
57107;SDS011;42987;52.916;6.542;2023-05-10T14:04:44;15.75;;;12.75;;
57107;SDS011;42987;52.916;6.542;2023-05-10T14:07:09;11.88;;;10.63;;
57107;SDS011;42987;52.916;6.542;2023-05-10T14:09:36;11.35;;;10.15;;
57107;SDS011;42987;52.916;6.542;2023-05-10T14:12:04;13.48;;;11.88;;
57107;SDS011;42987;52.916;6.542;2023-05-10T14:14:30;13.13;;;11.30;;
57107;SDS011;42987;52.916;6.542;2023-05-10T14:16:56;15.02;;;12.75;;
57107;SDS011;42987;52.916;6.542;2023-05-10T14:19:22;11.70;;;10.50;;
57107;SDS011;42987;52.916;6.542;2023-05-10T14:21:48;13.02;;;11.68;;
57107;SDS011;42987;52.916;6.542;2023-05-10T14:24:14;13.65;;;11.15;;
57107;SDS011;42987;52.916;6.542;2023-05-10T14:26:39;14.25;;;11.95;;
57107;SDS011;42987;52.916;6.542;2023-05-10T14:29:06;13.20;;;11.27;;
57107;SDS011;42987;52.916;6.542;2023-05-10T14:31:31;13.07;;;11.23;;
57107;SDS011;42987;52.916;6.542;2023-05-10T14:34:01;12.98;;;11.60;;
57107;SDS011;42987;52.916;6.542;2023-05-10T14:36:28;13.32;;;11.80;;
57107;SDS011;42987;52.916;6.542;2023-05-10T14:38:54;12.00;;;10.65;;
57107;SDS011;42987;52.916;6.542;2023-05-10T14:41:20;15.02;;;12.07;;
57107;SDS011;42987;52.916;6.542;2023-05-10T14:43:49;13.07;;;11.68;;
57107;SDS011;42987;52.916;6.542;2023-05-10T14:46:18;11.20;;;10.10;;
57107;SDS011;42987;52.916;6.542;2023-05-10T14:48:44;12.65;;;11.35;;
57107;SDS011;42987;52.916;6.542;2023-05-10T14:51:10;11.85;;;10.65;;
57107;SDS011;42987;52.916;6.542;2023-05-10T14:53:36;11.05;;;9.95;;
57107;SDS011;42987;52.916;6.542;2023-05-10T14:56:02;10.60;;;9.50;;
57107;SDS011;42987;52.916;6.542;2023-05-10T14:58:28;11.43;;;10.20;;
57107;SDS011;42987;52.916;6.542;2023-05-10T15:00:54;12.63;;;10.77;;
57107;SDS011;42987;52.916;6.542;2023-05-10T15:03:23;12.52;;;10.00;;
57107;SDS011;42987;52.916;6.542;2023-05-10T15:05:49;11.77;;;10.57;;
57107;SDS011;42987;52.916;6.542;2023-05-10T15:08:18;12.77;;;10.88;;
57107;SDS011;42987;52.916;6.542;2023-05-10T15:10:44;12.77;;;10.63;;
57107;SDS011;42987;52.916;6.542;2023-05-10T15:13:10;9.98;;;8.95;;
57107;SDS011;42987;52.916;6.542;2023-05-10T15:15:36;10.65;;;9.45;;
57107;SDS011;42987;52.916;6.542;2023-05-10T15:18:02;11.75;;;10.50;;
57107;SDS011;42987;52.916;6.542;2023-05-10T15:20:28;11.18;;;10.00;;
57107;SDS011;42987;52.916;6.542;2023-05-10T15:22:53;12.40;;;11.20;;
57107;SDS011;42987;52.916;6.542;2023-05-10T15:25:19;11.48;;;10.30;;
57107;SDS011;42987;52.916;6.542;2023-05-10T15:27:48;11.95;;;10.73;;
57107;SDS011;42987;52.916;6.542;2023-05-10T15:30:14;13.02;;;11.65;;
57107;SDS011;42987;52.916;6.542;2023-05-10T15:32:40;12.77;;;10.95;;
57107;SDS011;42987;52.916;6.542;2023-05-10T15:35:07;12.32;;;11.05;;
57107;SDS011;42987;52.916;6.542;2023-05-10T15:37:34;12.35;;;11.05;;